createdAt,value
2022-10-31T00:00:27.956Z,13.86
2022-10-31T00:03:17.106Z,13.85
2022-10-31T00:05:50.163Z,13.79
2022-10-31T00:08:18.852Z,13.78
2022-10-31T00:10:47.042Z,13.79
2022-10-31T00:13:16.555Z,13.80
2022-10-31T00:15:44.284Z,13.82
2022-10-31T00:18:12.402Z,13.82
2022-10-31T00:20:40.332Z,13.83
2022-10-31T00:23:09.948Z,13.86
2022-10-31T00:25:40.397Z,13.88
2022-10-31T00:28:11.625Z,13.82
2022-10-31T00:30:39.276Z,13.81
2022-10-31T00:33:07.099Z,13.78
2022-10-31T00:35:34.669Z,13.73
2022-10-31T00:38:02.427Z,13.70
2022-10-31T00:40:29.927Z,13.69
2022-10-31T00:42:58.264Z,13.68
2022-10-31T00:45:25.948Z,13.68
2022-10-31T00:47:54.345Z,13.68
2022-10-31T00:50:22.003Z,13.68
2022-10-31T00:52:49.867Z,13.68
2022-10-31T00:55:18.001Z,13.69
2022-10-31T00:57:48.778Z,13.71
2022-10-31T01:00:17.641Z,13.72
2022-10-31T01:02:45.645Z,13.71
2022-10-31T01:05:13.621Z,13.73
2022-10-31T01:07:42.409Z,13.76
2022-10-31T01:10:11.459Z,13.74
2022-10-31T01:12:45.768Z,13.75
2022-10-31T01:15:21.650Z,13.77
2022-10-31T01:17:50.177Z,13.77
2022-10-31T01:20:18.775Z,13.77
2022-10-31T01:22:47.004Z,13.77
2022-10-31T01:25:14.755Z,13.75
2022-10-31T01:27:45.068Z,13.76
2022-10-31T01:30:13.144Z,13.74
2022-10-31T01:32:41.000Z,13.71
2022-10-31T01:35:08.564Z,13.70
2022-10-31T01:37:36.330Z,13.69
2022-10-31T01:40:04.275Z,13.70
2022-10-31T01:42:32.002Z,13.70
2022-10-31T01:45:03.929Z,13.69
2022-10-31T01:47:44.872Z,13.69
2022-10-31T01:50:36.501Z,13.68
2022-10-31T01:53:09.292Z,13.68
2022-10-31T01:55:45.384Z,13.64
2022-10-31T01:58:26.158Z,13.67
2022-10-31T02:01:03.246Z,13.66
2022-10-31T02:03:34.862Z,13.68
2022-10-31T02:06:04.303Z,13.68
2022-10-31T02:08:36.196Z,13.70
2022-10-31T02:11:03.982Z,13.68
2022-10-31T02:13:31.810Z,13.67
2022-10-31T02:16:00.928Z,13.67
2022-10-31T02:18:31.568Z,13.68
2022-10-31T02:21:26.040Z,13.69
2022-10-31T02:24:31.473Z,13.71
2022-10-31T02:27:49.437Z,13.71
2022-10-31T02:30:29.364Z,13.71
2022-10-31T02:33:24.491Z,13.72
2022-10-31T02:36:15.887Z,13.73
2022-10-31T02:39:31.633Z,13.69
2022-10-31T02:42:17.307Z,13.65
2022-10-31T02:44:57.719Z,13.62
2022-10-31T02:47:34.647Z,13.61
2022-10-31T02:50:11.918Z,13.58
2022-10-31T02:52:40.695Z,13.57
2022-10-31T02:55:26.313Z,13.54
2022-10-31T02:58:15.309Z,13.50
2022-10-31T03:01:11.557Z,13.47
2022-10-31T03:04:29.362Z,13.49
2022-10-31T03:07:29.031Z,13.50
2022-10-31T03:10:32.630Z,13.50
2022-10-31T03:13:13.967Z,13.49
2022-10-31T03:15:46.278Z,13.49
2022-10-31T03:18:40.561Z,13.49
2022-10-31T03:21:15.658Z,13.45
2022-10-31T03:23:47.357Z,13.41
2022-10-31T03:26:22.828Z,13.39
2022-10-31T03:29:05.924Z,13.39
2022-10-31T03:31:42.968Z,13.38
2022-10-31T03:34:13.448Z,13.35
2022-10-31T03:36:42.553Z,13.31
2022-10-31T03:39:16.679Z,13.33
2022-10-31T03:41:52.677Z,13.35
2022-10-31T03:44:24.564Z,13.36
2022-10-31T03:47:00.745Z,13.37
2022-10-31T03:49:29.814Z,13.39
2022-10-31T03:52:19.303Z,13.41
2022-10-31T03:55:06.671Z,13.41
2022-10-31T03:58:04.208Z,13.42
2022-10-31T04:00:34.500Z,13.41
2022-10-31T04:03:18.530Z,13.42
2022-10-31T04:05:52.695Z,13.44
2022-10-31T04:08:27.153Z,13.45
2022-10-31T04:10:59.476Z,13.44
2022-10-31T04:13:34.957Z,13.42
2022-10-31T04:16:12.640Z,13.42
2022-10-31T04:18:44.176Z,13.42
2022-10-31T04:21:11.742Z,13.42
2022-10-31T04:23:40.089Z,13.43
2022-10-31T04:26:18.423Z,13.48
2022-10-31T04:28:46.131Z,13.51
2022-10-31T04:31:15.165Z,13.50
2022-10-31T04:33:44.776Z,13.49
2022-10-31T04:36:13.401Z,13.51
2022-10-31T04:38:41.155Z,13.49
2022-10-31T04:41:18.164Z,13.44
2022-10-31T04:43:55.090Z,13.46
2022-10-31T04:46:22.983Z,13.44
2022-10-31T04:48:50.815Z,13.43
2022-10-31T04:51:18.735Z,13.41
2022-10-31T04:53:46.477Z,13.41
2022-10-31T04:56:36.996Z,13.39
2022-10-31T04:59:11.799Z,13.39
2022-10-31T05:02:05.328Z,13.36
2022-10-31T05:04:47.880Z,13.37
2022-10-31T05:07:15.973Z,13.36
2022-10-31T05:09:44.821Z,13.39
2022-10-31T05:12:14.649Z,13.42
2022-10-31T05:15:23.691Z,13.43
2022-10-31T05:18:11.464Z,13.43
2022-10-31T05:20:44.738Z,13.45
2022-10-31T05:23:25.630Z,13.46
2022-10-31T05:25:53.347Z,13.45
2022-10-31T05:28:20.835Z,13.47
2022-10-31T05:30:48.891Z,13.49
2022-10-31T05:33:17.318Z,13.51
2022-10-31T05:36:03.626Z,13.52
2022-10-31T05:38:31.053Z,13.55
2022-10-31T05:41:06.761Z,13.55
2022-10-31T05:43:35.052Z,13.57
2022-10-31T05:46:06.383Z,13.55
2022-10-31T05:48:55.461Z,13.55
2022-10-31T05:51:42.226Z,13.54
2022-10-31T05:54:14.762Z,13.56
2022-10-31T05:56:45.468Z,13.55
2022-10-31T05:59:13.354Z,13.57
2022-10-31T06:01:42.247Z,13.55
2022-10-31T06:04:25.110Z,13.54
2022-10-31T06:06:53.637Z,13.51
2022-10-31T06:09:21.209Z,13.52
2022-10-31T06:11:48.995Z,13.54
2022-10-31T06:14:25.644Z,13.55
2022-10-31T06:16:58.516Z,13.57
2022-10-31T06:19:44.126Z,13.55
2022-10-31T06:22:16.514Z,13.55
2022-10-31T06:24:44.957Z,13.57
2022-10-31T06:27:32.925Z,13.58
2022-10-31T06:30:07.736Z,13.57
2022-10-31T06:32:37.756Z,13.56
2022-10-31T06:35:06.159Z,13.56
2022-10-31T06:37:36.129Z,13.56
2022-10-31T06:40:24.177Z,13.58
2022-10-31T06:43:15.816Z,13.59
2022-10-31T06:45:47.654Z,13.59
2022-10-31T06:48:43.097Z,13.61
2022-10-31T06:51:21.797Z,13.63
2022-10-31T06:53:52.156Z,13.65
2022-10-31T06:56:20.127Z,13.69
2022-10-31T06:58:54.037Z,13.72
2022-10-31T07:01:36.731Z,13.73
2022-10-31T07:04:04.865Z,13.74
2022-10-31T07:06:35.770Z,13.79
2022-10-31T07:09:04.034Z,13.81
2022-10-31T07:11:31.994Z,13.87
2022-10-31T07:14:00.740Z,13.84
2022-10-31T07:16:28.353Z,13.87
2022-10-31T07:18:56.256Z,13.90
2022-10-31T07:21:23.831Z,13.93
2022-10-31T07:23:52.212Z,13.98
2022-10-31T07:26:39.998Z,13.99
2022-10-31T07:29:08.467Z,14.02
2022-10-31T07:31:36.140Z,14.10
2022-10-31T07:34:15.623Z,14.15
2022-10-31T07:37:09.365Z,14.24
2022-10-31T07:39:37.779Z,14.31
2022-10-31T07:42:05.332Z,14.35
2022-10-31T07:44:34.166Z,14.40
2022-10-31T07:47:01.606Z,14.47
2022-10-31T07:49:47.964Z,14.51
2022-10-31T07:52:39.164Z,14.53
2022-10-31T07:55:31.397Z,14.57
2022-10-31T07:58:08.965Z,14.56
2022-10-31T08:00:42.819Z,14.63
2022-10-31T08:03:15.428Z,14.67
2022-10-31T08:06:01.923Z,14.73
2022-10-31T08:08:47.830Z,14.78
2022-10-31T08:11:16.086Z,14.80
2022-10-31T08:13:44.121Z,14.84
2022-10-31T08:16:15.122Z,14.87
2022-10-31T08:18:56.755Z,14.89
2022-10-31T08:21:25.351Z,14.92
2022-10-31T08:23:52.831Z,14.93
2022-10-31T08:26:23.562Z,14.98
2022-10-31T08:28:53.552Z,14.99
2022-10-31T08:31:24.820Z,15.01
2022-10-31T08:34:15.463Z,15.02
2022-10-31T08:36:45.952Z,15.03
2022-10-31T08:39:18.528Z,15.04
2022-10-31T08:41:46.384Z,15.07
2022-10-31T08:44:16.622Z,15.13
2022-10-31T08:46:44.964Z,15.16
2022-10-31T08:49:12.475Z,15.19
2022-10-31T08:51:42.346Z,15.27
2022-10-31T08:54:09.972Z,15.32
2022-10-31T08:56:37.672Z,15.33
2022-10-31T08:59:14.860Z,15.34
2022-10-31T09:02:01.075Z,15.37
2022-10-31T09:04:44.130Z,15.39
2022-10-31T09:07:27.381Z,15.37
2022-10-31T09:09:56.806Z,15.38
2022-10-31T09:12:25.291Z,15.38
2022-10-31T09:15:15.973Z,15.34
2022-10-31T09:17:55.221Z,15.32
2022-10-31T09:20:47.514Z,15.26
2022-10-31T09:23:21.334Z,15.27
2022-10-31T09:25:52.371Z,15.27
2022-10-31T09:28:33.277Z,15.31
2022-10-31T09:31:19.313Z,15.34
2022-10-31T09:34:00.405Z,15.36
2022-10-31T09:36:40.324Z,15.33
2022-10-31T09:39:12.424Z,15.33
2022-10-31T09:41:59.031Z,15.34
2022-10-31T09:44:53.251Z,15.37
2022-10-31T09:48:07.431Z,15.38
2022-10-31T09:51:06.934Z,15.42
2022-10-31T09:54:43.449Z,15.44
2022-10-31T09:57:18.687Z,15.46
2022-10-31T09:59:50.480Z,15.48
2022-10-31T10:02:46.177Z,15.50
2022-10-31T10:05:59.166Z,15.55
2022-10-31T10:08:39.741Z,15.60
2022-10-31T10:12:17.854Z,15.66
2022-10-31T10:15:14.680Z,15.67
2022-10-31T10:18:18.369Z,15.74
2022-10-31T10:21:27.755Z,15.78
2022-10-31T10:24:09.451Z,15.84
2022-10-31T10:26:51.651Z,15.91
2022-10-31T10:29:56.966Z,15.97
2022-10-31T10:32:51.903Z,16.00
2022-10-31T10:35:56.873Z,16.03
2022-10-31T10:38:54.559Z,16.08
2022-10-31T10:41:48.090Z,16.16
2022-10-31T10:44:16.770Z,16.24
2022-10-31T10:47:15.503Z,16.33
2022-10-31T10:49:52.849Z,16.44
2022-10-31T10:53:02.516Z,16.54
2022-10-31T10:56:00.953Z,16.63
2022-10-31T10:58:28.472Z,16.73
2022-10-31T11:00:56.890Z,16.75
2022-10-31T11:03:24.490Z,16.73
2022-10-31T11:06:02.490Z,16.76
2022-10-31T11:08:36.244Z,16.78
2022-10-31T11:11:16.232Z,16.83
2022-10-31T11:13:47.814Z,16.94
2022-10-31T11:16:28.047Z,17.13
2022-10-31T11:19:07.605Z,17.30
2022-10-31T11:21:36.265Z,17.39
2022-10-31T11:24:29.004Z,17.50
2022-10-31T11:27:21.069Z,17.58
2022-10-31T11:29:48.623Z,17.68
2022-10-31T11:32:36.735Z,17.89
2022-10-31T11:35:14.722Z,17.96
2022-10-31T11:37:46.258Z,18.03
2022-10-31T11:40:24.128Z,18.11
2022-10-31T11:42:56.614Z,18.25
2022-10-31T11:45:24.046Z,18.41
2022-10-31T11:47:59.631Z,18.64
2022-10-31T11:50:40.259Z,18.87
2022-10-31T11:53:35.324Z,19.12
2022-10-31T11:56:16.386Z,19.33
2022-10-31T11:58:44.445Z,19.46
2022-10-31T12:01:34.061Z,19.70
2022-10-31T12:04:10.226Z,19.96
2022-10-31T12:06:41.565Z,20.09
2022-10-31T12:09:35.359Z,20.32
2022-10-31T12:12:14.714Z,20.48
2022-10-31T12:15:12.670Z,20.67
2022-10-31T12:18:10.988Z,20.82
2022-10-31T12:21:13.516Z,20.83
2022-10-31T12:23:46.869Z,20.89
2022-10-31T12:26:32.701Z,20.97
2022-10-31T12:29:11.640Z,21.09
2022-10-31T12:31:48.277Z,21.17
2022-10-31T12:34:30.715Z,21.32
2022-10-31T12:37:41.601Z,21.49
2022-10-31T12:40:43.013Z,21.59
2022-10-31T12:43:48.619Z,21.62
2022-10-31T12:46:57.541Z,21.67
2022-10-31T12:49:25.162Z,21.72
2022-10-31T12:52:18.522Z,21.72
2022-10-31T12:55:21.513Z,21.72
2022-10-31T12:57:59.410Z,21.71
2022-10-31T13:00:30.463Z,21.74
2022-10-31T13:03:53.224Z,21.71
2022-10-31T13:06:29.770Z,21.53
2022-10-31T13:09:11.276Z,21.43
2022-10-31T13:11:46.707Z,21.45
2022-10-31T13:14:23.236Z,21.50
2022-10-31T13:16:52.712Z,21.57
2022-10-31T13:19:37.846Z,21.70
2022-10-31T13:22:18.790Z,21.92
2022-10-31T13:25:16.572Z,22.12
2022-10-31T13:27:51.509Z,22.31
2022-10-31T13:30:25.677Z,22.57
2022-10-31T13:32:59.899Z,22.75
2022-10-31T13:35:42.496Z,22.92
2022-10-31T13:38:49.471Z,23.13
2022-10-31T13:41:55.091Z,23.24
2022-10-31T13:44:26.825Z,23.25
2022-10-31T13:46:57.515Z,23.29
2022-10-31T13:49:31.209Z,23.30
2022-10-31T13:52:10.605Z,23.27
2022-10-31T13:54:46.683Z,23.28
2022-10-31T13:57:41.375Z,23.39
2022-10-31T14:00:21.670Z,23.49
2022-10-31T14:02:56.769Z,23.49
2022-10-31T14:05:34.591Z,23.51
2022-10-31T14:08:17.668Z,23.56
2022-10-31T14:10:52.745Z,23.65
2022-10-31T14:13:32.280Z,23.75
2022-10-31T14:16:06.981Z,23.73
2022-10-31T14:18:42.712Z,23.64
2022-10-31T14:21:25.624Z,23.51
2022-10-31T14:23:55.098Z,23.39
2022-10-31T14:26:32.025Z,23.22
2022-10-31T14:29:13.977Z,23.11
2022-10-31T14:32:13.469Z,22.96
2022-10-31T14:35:00.928Z,22.73
2022-10-31T14:37:53.114Z,22.35
2022-10-31T14:40:45.613Z,21.95
2022-10-31T14:43:39.373Z,21.57
2022-10-31T14:46:34.754Z,21.30
2022-10-31T14:49:47.466Z,20.92
2022-10-31T14:52:18.131Z,20.48
2022-10-31T14:54:56.478Z,20.13
2022-10-31T14:57:33.856Z,19.83
2022-10-31T15:00:29.157Z,19.53
2022-10-31T15:03:25.871Z,19.27
2022-10-31T15:05:57.752Z,19.04
2022-10-31T15:08:46.403Z,18.87
2022-10-31T15:11:15.335Z,18.65
2022-10-31T15:13:58.145Z,18.43
2022-10-31T15:16:36.852Z,18.25
2022-10-31T15:19:28.840Z,18.05
2022-10-31T15:21:58.908Z,17.86
2022-10-31T15:24:39.847Z,17.70
2022-10-31T15:27:15.185Z,17.55
2022-10-31T15:29:57.388Z,17.41
2022-10-31T15:32:30.273Z,17.26
2022-10-31T15:34:58.353Z,17.15
2022-10-31T15:37:27.886Z,17.05
2022-10-31T15:39:55.458Z,16.94
2022-10-31T15:43:04.940Z,16.81
2022-10-31T15:45:32.914Z,16.71
2022-10-31T15:48:14.770Z,16.60
2022-10-31T15:50:53.268Z,16.50
2022-10-31T15:53:46.017Z,16.43
2022-10-31T15:56:26.579Z,16.34
2022-10-31T15:58:56.529Z,16.26
2022-10-31T16:01:33.365Z,16.19
2022-10-31T16:04:13.438Z,16.13
2022-10-31T16:06:41.691Z,16.07
2022-10-31T16:09:49.504Z,16.00
2022-10-31T16:12:21.456Z,15.92
2022-10-31T16:14:54.134Z,15.85
2022-10-31T16:17:25.795Z,15.81
2022-10-31T16:20:05.304Z,15.75
2022-10-31T16:22:39.007Z,15.70
2022-10-31T16:25:17.086Z,15.66
2022-10-31T16:27:54.778Z,15.62
2022-10-31T16:30:48.202Z,15.59
2022-10-31T16:33:22.560Z,15.56
2022-10-31T16:35:55.774Z,15.53
2022-10-31T16:38:26.750Z,15.53
2022-10-31T16:40:55.254Z,15.51
2022-10-31T16:43:24.353Z,15.50
2022-10-31T16:45:54.039Z,15.48
2022-10-31T16:48:24.228Z,15.44
2022-10-31T16:50:53.836Z,15.38
2022-10-31T16:53:21.673Z,15.36
2022-10-31T16:56:04.826Z,15.29
2022-10-31T16:58:35.706Z,15.29
2022-10-31T17:01:06.863Z,15.28
2022-10-31T17:03:34.851Z,15.26
2022-10-31T17:06:02.978Z,15.23
2022-10-31T17:08:31.092Z,15.22
2022-10-31T17:10:59.718Z,15.20
2022-10-31T17:13:30.960Z,15.18
2022-10-31T17:16:02.926Z,15.17
2022-10-31T17:18:31.102Z,15.15
2022-10-31T17:21:07.239Z,15.14
2022-10-31T17:23:36.002Z,15.12
2022-10-31T17:26:03.953Z,15.09
2022-10-31T17:28:31.656Z,15.06
2022-10-31T17:30:59.675Z,15.05
2022-10-31T17:33:27.543Z,15.02
2022-10-31T17:35:55.694Z,15.00
2022-10-31T17:38:24.024Z,14.98
2022-10-31T17:40:54.756Z,14.94
2022-10-31T17:43:27.076Z,14.93
2022-10-31T17:45:54.978Z,14.93
2022-10-31T17:48:22.441Z,14.91
2022-10-31T17:50:50.203Z,14.88
2022-10-31T17:53:17.704Z,14.85
2022-10-31T17:55:45.634Z,14.83
2022-10-31T17:58:13.884Z,14.83
2022-10-31T18:00:44.740Z,14.78
2022-10-31T18:03:14.870Z,14.77
2022-10-31T18:05:59.338Z,14.75
2022-10-31T18:08:33.141Z,14.71
2022-10-31T18:11:06.523Z,14.68
2022-10-31T18:13:34.009Z,14.66
2022-10-31T18:16:02.617Z,14.63
2022-10-31T18:18:30.071Z,14.58
2022-10-31T18:20:58.447Z,14.56
2022-10-31T18:23:25.950Z,14.56
2022-10-31T18:25:55.460Z,14.54
2022-10-31T18:28:23.010Z,14.50
2022-10-31T18:30:50.813Z,14.48
2022-10-31T18:33:18.374Z,14.46
2022-10-31T18:35:46.333Z,14.44
2022-10-31T18:38:13.909Z,14.43
2022-10-31T18:40:41.907Z,14.41
2022-10-31T18:43:09.407Z,14.40
2022-10-31T18:45:47.286Z,14.36
2022-10-31T18:48:17.929Z,14.36
2022-10-31T18:50:45.798Z,14.35
2022-10-31T18:53:13.414Z,14.30
2022-10-31T18:55:45.410Z,14.28
2022-10-31T18:58:17.185Z,14.26
2022-10-31T19:00:46.037Z,14.21
2022-10-31T19:03:14.729Z,14.18
2022-10-31T19:05:42.508Z,14.18
2022-10-31T19:08:10.790Z,14.17
2022-10-31T19:10:40.193Z,14.15
2022-10-31T19:13:08.429Z,14.15
2022-10-31T19:15:36.829Z,14.15
2022-10-31T19:18:04.860Z,14.15
2022-10-31T19:20:33.163Z,14.14
2022-10-31T19:23:01.033Z,14.13
2022-10-31T19:25:28.963Z,14.12
2022-10-31T19:27:56.453Z,14.11
2022-10-31T19:30:24.278Z,14.12
2022-10-31T19:32:56.203Z,14.10
2022-10-31T19:35:23.957Z,14.10
2022-10-31T19:37:51.561Z,14.10
2022-10-31T19:40:19.525Z,14.10
2022-10-31T19:42:47.353Z,14.14
2022-10-31T19:45:15.124Z,14.14
2022-10-31T19:47:42.593Z,14.15
2022-10-31T19:50:10.405Z,14.15
2022-10-31T19:52:39.209Z,14.17
2022-10-31T19:55:07.273Z,14.18
2022-10-31T19:58:00.368Z,14.17
2022-10-31T20:00:24.837Z,14.13
2022-10-31T20:02:52.433Z,14.14
2022-10-31T20:05:20.165Z,14.11
2022-10-31T20:07:47.620Z,14.09
2022-10-31T20:10:15.395Z,14.06
2022-10-31T20:12:43.185Z,14.04
2022-10-31T20:15:11.044Z,14.05
2022-10-31T20:17:38.582Z,14.03
2022-10-31T20:20:08.948Z,13.98
2022-10-31T20:22:37.357Z,13.95
2022-10-31T20:25:06.262Z,13.92
2022-10-31T20:27:33.870Z,13.89
2022-10-31T20:30:01.949Z,13.86
2022-10-31T20:32:31.308Z,13.84
2022-10-31T20:34:59.377Z,13.82
2022-10-31T20:37:26.954Z,13.80
2022-10-31T20:39:56.575Z,13.75
2022-10-31T20:42:24.795Z,13.73
2022-10-31T20:44:52.797Z,13.70
2022-10-31T20:47:23.418Z,13.70
2022-10-31T20:49:54.183Z,13.66
2022-10-31T20:52:21.922Z,13.65
2022-10-31T20:54:50.099Z,13.63
2022-10-31T20:57:17.691Z,13.59
2022-10-31T20:59:45.837Z,13.57
2022-10-31T21:02:13.693Z,13.52
2022-10-31T21:04:42.451Z,13.51
2022-10-31T21:07:09.960Z,13.49
2022-10-31T21:09:38.296Z,13.47
2022-10-31T21:12:06.227Z,13.43
2022-10-31T21:14:34.234Z,13.39
2022-10-31T21:17:02.452Z,13.37
2022-10-31T21:19:31.093Z,13.34
2022-10-31T21:21:58.542Z,13.32
2022-10-31T21:24:28.803Z,13.32
2022-10-31T21:26:56.374Z,13.29
2022-10-31T21:29:24.881Z,13.28
2022-10-31T21:31:52.674Z,13.26
2022-10-31T21:34:20.375Z,13.25
2022-10-31T21:36:47.947Z,13.26
2022-10-31T21:39:15.690Z,13.26
2022-10-31T21:41:45.736Z,13.26
2022-10-31T21:44:13.597Z,13.23
2022-10-31T21:46:41.594Z,13.22
2022-10-31T21:49:11.684Z,13.21
2022-10-31T21:51:40.921Z,13.21
2022-10-31T21:54:28.433Z,13.23
2022-10-31T21:56:57.850Z,13.20
2022-10-31T21:59:26.233Z,13.16
2022-10-31T22:01:56.999Z,13.09
2022-10-31T22:04:24.954Z,13.06
2022-10-31T22:06:52.665Z,13.07
2022-10-31T22:09:20.606Z,12.93
2022-10-31T22:11:48.118Z,12.71
2022-10-31T22:14:16.258Z,12.52
2022-10-31T22:16:44.311Z,12.41
2022-10-31T22:19:14.477Z,12.34
2022-10-31T22:21:49.054Z,12.32
2022-10-31T22:24:18.034Z,12.37
2022-10-31T22:26:46.062Z,12.40
2022-10-31T22:29:18.926Z,12.35
2022-10-31T22:31:57.227Z,12.22
2022-10-31T22:34:27.825Z,12.21
2022-10-31T22:36:56.712Z,12.27
2022-10-31T22:39:24.814Z,12.26
2022-10-31T22:41:52.413Z,12.34
2022-10-31T22:44:20.660Z,12.32
2022-10-31T22:46:48.161Z,12.40
2022-10-31T22:49:16.501Z,12.38
2022-10-31T22:51:45.059Z,12.38
2022-10-31T22:54:18.523Z,12.40
2022-10-31T22:56:46.681Z,12.35
2022-10-31T22:59:16.517Z,12.42
2022-10-31T23:01:47.394Z,12.49
2022-10-31T23:04:17.105Z,12.54
2022-10-31T23:06:44.944Z,12.60
2022-10-31T23:09:16.227Z,12.58
2022-10-31T23:11:44.888Z,12.58
2022-10-31T23:14:20.620Z,12.59
2022-10-31T23:16:55.608Z,12.59
2022-10-31T23:19:29.898Z,12.57
2022-10-31T23:22:04.929Z,12.53
2022-10-31T23:24:40.453Z,12.54
2022-10-31T23:27:21.453Z,12.54
2022-10-31T23:29:55.597Z,12.53
2022-10-31T23:32:38.074Z,12.53
2022-10-31T23:35:29.365Z,12.50
2022-10-31T23:38:05.915Z,12.51
2022-10-31T23:40:48.434Z,12.53
2022-10-31T23:43:39.269Z,12.52
2022-10-31T23:46:17.791Z,12.47
2022-10-31T23:49:43.648Z,12.47
2022-10-31T23:52:28.069Z,12.45
2022-10-31T23:55:05.344Z,12.47
2022-10-31T23:57:42.538Z,12.48
